createdAt,value
2022-11-05T17:31:32.106Z,59.55
2022-11-05T17:34:19.946Z,59.33
2022-11-05T17:37:08.024Z,62.87
2022-11-05T17:39:56.182Z,65.00
2022-11-05T17:42:45.806Z,64.29
2022-11-05T17:45:33.756Z,63.56
2022-11-05T17:48:21.889Z,62.94
2022-11-05T17:51:13.240Z,61.90
2022-11-05T17:54:01.107Z,61.30
2022-11-05T17:56:49.351Z,61.76
2022-11-05T17:59:38.948Z,60.35
2022-11-05T18:02:29.660Z,60.45
2022-11-05T18:05:20.006Z,61.05
2022-11-05T18:08:09.285Z,59.52
2022-11-05T18:11:04.023Z,59.80
2022-11-05T18:13:52.700Z,63.06
2022-11-05T18:16:41.103Z,65.76
2022-11-05T18:19:30.043Z,64.97
2022-11-05T18:22:19.624Z,63.63
2022-11-05T18:25:10.821Z,62.63
2022-11-05T18:27:58.899Z,61.87
2022-11-05T18:30:46.870Z,61.49
2022-11-05T18:33:34.887Z,59.42
2022-11-05T18:36:30.059Z,59.38
2022-11-05T18:39:18.200Z,64.42
2022-11-05T18:42:06.383Z,66.26
2022-11-05T18:44:54.151Z,64.53
2022-11-05T18:47:42.275Z,64.31
2022-11-05T18:50:30.674Z,62.99
2022-11-05T18:53:19.062Z,62.51
2022-11-05T18:56:09.741Z,61.74
2022-11-05T18:59:21.959Z,60.56
2022-11-05T19:02:07.180Z,61.12
2022-11-05T19:05:26.692Z,61.06
2022-11-05T19:08:03.098Z,59.34
2022-11-05T19:10:53.169Z,60.23
2022-11-05T19:13:41.970Z,64.36
2022-11-05T19:16:32.368Z,66.18
2022-11-05T19:19:20.132Z,64.76
2022-11-05T19:22:08.481Z,64.07
2022-11-05T19:24:56.405Z,62.31
2022-11-05T19:27:44.461Z,62.87
2022-11-05T19:30:32.431Z,62.51
2022-11-05T19:33:20.423Z,61.04
2022-11-05T19:36:09.656Z,62.11
2022-11-05T19:39:02.521Z,62.01
2022-11-05T19:41:50.702Z,61.68
2022-11-05T19:44:39.113Z,60.52
2022-11-05T19:47:27.535Z,60.76
2022-11-05T19:50:16.433Z,58.20
2022-11-05T19:53:07.912Z,60.23
2022-11-05T19:55:55.897Z,64.49
2022-11-05T19:58:45.266Z,64.94
2022-11-05T20:01:35.056Z,62.83
2022-11-05T20:04:23.390Z,63.58
2022-11-05T20:07:11.872Z,63.63
2022-11-05T20:10:00.400Z,61.66
2022-11-05T20:12:48.347Z,62.17
2022-11-05T20:15:40.049Z,61.00
2022-11-05T20:18:28.868Z,60.86
2022-11-05T20:21:17.740Z,60.99
2022-11-05T20:24:06.301Z,59.15
2022-11-05T20:26:55.954Z,60.72
2022-11-05T20:29:43.935Z,64.30
2022-11-05T20:32:32.151Z,64.89
2022-11-05T20:35:20.190Z,65.11
2022-11-05T20:38:08.561Z,63.94
2022-11-05T20:40:56.695Z,63.44
2022-11-05T20:43:46.971Z,63.01
2022-11-05T20:46:35.049Z,61.68
2022-11-05T20:49:25.536Z,61.53
2022-11-05T20:52:17.240Z,60.29
2022-11-05T20:55:09.204Z,60.82
2022-11-05T20:57:57.831Z,60.98
2022-11-05T21:00:52.587Z,59.37
2022-11-05T21:03:40.570Z,58.65
2022-11-05T21:06:29.449Z,62.46
2022-11-05T21:09:17.649Z,65.31
2022-11-05T21:12:12.115Z,63.80
2022-11-05T21:15:00.557Z,62.63
2022-11-05T21:17:50.519Z,62.49
2022-11-05T21:20:40.790Z,61.81
2022-11-05T21:23:29.034Z,61.46
2022-11-05T21:26:18.132Z,59.91
2022-11-05T21:29:07.883Z,60.84
2022-11-05T21:31:57.010Z,60.50
2022-11-05T21:34:58.856Z,60.51
2022-11-05T21:37:47.224Z,59.45
2022-11-05T21:40:37.391Z,58.34
2022-11-05T21:43:32.350Z,59.88
2022-11-05T21:46:21.495Z,64.77
2022-11-05T21:49:09.872Z,66.10
2022-11-05T21:52:16.778Z,64.04
2022-11-05T21:55:24.245Z,63.41
2022-11-05T21:58:34.724Z,62.82
2022-11-05T22:01:22.985Z,61.86
2022-11-05T22:04:10.897Z,61.27
2022-11-05T22:06:59.627Z,60.38
2022-11-05T22:09:47.540Z,59.01
2022-11-05T22:12:35.543Z,59.20
2022-11-05T22:15:23.911Z,60.08
2022-11-05T22:18:13.283Z,65.11
2022-11-05T22:21:01.669Z,66.56
2022-11-05T22:23:49.690Z,64.85
2022-11-05T22:26:39.104Z,63.87
2022-11-05T22:29:28.629Z,62.35
2022-11-05T22:32:17.389Z,61.74
2022-11-05T22:35:09.267Z,61.28
2022-11-05T22:37:57.264Z,60.57
2022-11-05T22:40:45.251Z,59.95
2022-11-05T22:43:33.430Z,58.43
2022-11-05T22:46:24.301Z,58.76
2022-11-05T22:49:12.442Z,63.45
2022-11-05T22:52:00.066Z,65.51
2022-11-05T22:54:48.028Z,63.95
2022-11-05T22:57:36.056Z,63.35
2022-11-05T23:00:37.128Z,62.07
2022-11-05T23:03:27.154Z,61.73
2022-11-05T23:06:51.521Z,61.02
2022-11-05T23:09:57.807Z,60.52
2022-11-05T23:12:45.612Z,59.80
2022-11-05T23:15:51.656Z,58.12
2022-11-05T23:18:57.806Z,59.70
2022-11-05T23:22:03.899Z,63.23
2022-11-05T23:24:53.095Z,64.96
2022-11-05T23:27:41.818Z,63.45
2022-11-05T23:30:30.040Z,62.18
2022-11-05T23:33:19.915Z,61.14
2022-11-05T23:36:37.685Z,60.19
2022-11-05T23:39:25.442Z,59.73
2022-11-05T23:42:32.473Z,57.36
2022-11-05T23:45:39.305Z,58.56
2022-11-05T23:48:34.646Z,63.66
2022-11-05T23:51:23.109Z,65.92
2022-11-05T23:54:37.653Z,64.20
2022-11-05T23:57:27.455Z,62.34
